Wilder, VT (05088)

6:04 AM EDT on September 29, 2016 (GMT -0400)
Wilder Village | | Change Station

Elev 451 ft 43.68 °N, 72.31 °W | Updated 10 minutes ago

Fog
Fog
45.9 °F
Feels Like 46 °F
N
1.0
Wind Variable Wind from NW
Gusts 1.0 mph

Today
High -- | Low -- °F
--% Chance of Precip.
Yesterday
High -- | Low -- °F
Precip. -- in
Pressure 30.44 in
Visibility 0.2 miles
Clouds
Windchill 46 °F
Dew Point 45 °F
Humidity 97%
Rainfall 0.00 in
Snow Depth Not available.
6:45 AM 6:32 PM
Waning Crescent, 2% visible
METAR KLEB 290953Z AUTO 01003KT 1/4SM FG VV001 09/08 A3044 RMK AO2 SLP306 T00890083
Pressure 30.44 in
Visibility 0.2 miles
Clouds
Windchill 46 °F
Dew Point 45 °F
Humidity 97%
Rainfall 0.00 in
Snow Depth Not available.
6:45 AM 6:32 PM
Waning Crescent, 2% visible
METAR KLEB 290953Z AUTO 01003KT 1/4SM FG VV001 09/08 A3044 RMK AO2 SLP306 T00890083

10-Day Weather Forecast

Almanac

Astronomy

Sep. 29, 2016 Rise Set
Actual Time
Civil Twilight
Nautical Twilight
Astronomical Twilight
Moon
Length of Visible Light
Length of Day
Tomorrow will be .
, % of the Moon is Illuminated

Today's Extremes

State Highs State Lows

Community

WunderPhotos

Upload Photos

1,942,446 photos uploaded!

WunderBlog® & News

Nearby

Air Quality

  Air Quality AQ Index Pollutant
Not available.

Snow Depth

Station Depth Elevation

Earthquake Activity

City Distance Mag. Time & Date
Minimum magnitude displayed is 2.5.

Coastal Water Temperatures

Place Temperature

Stations

Nearby Weather Stations

Station Location Temp. Windchill Dew Point Humidity Wind Precip. Elev Updated Type
                   

Watches & Warnings

There are currently no watches in effect.